createdAt,value
2019-05-14T00:00:14.376Z,2.83
2019-05-14T00:04:38.509Z,4.00
2019-05-14T00:09:02.455Z,3.13
2019-05-14T00:13:26.709Z,2.97
2019-05-14T00:17:52.440Z,3.50
2019-05-14T00:22:17.662Z,4.13
2019-05-14T00:26:42.673Z,3.47
2019-05-14T00:31:07.138Z,3.53
2019-05-14T00:35:32.477Z,3.20
2019-05-14T00:39:56.629Z,5.00
2019-05-14T00:44:21.382Z,2.87
2019-05-14T00:48:43.305Z,4.40
2019-05-14T00:53:07.414Z,3.58
2019-05-14T00:57:31.692Z,4.40
2019-05-14T01:01:55.546Z,3.30
2019-05-14T01:06:21.731Z,3.47
2019-05-14T01:10:44.955Z,4.67
2019-05-14T01:15:13.383Z,3.40
2019-05-14T01:19:36.078Z,3.20
2019-05-14T01:24:01.864Z,5.17
2019-05-14T01:28:25.376Z,5.60
2019-05-14T01:32:51.129Z,5.00
2019-05-14T01:37:15.094Z,4.00
2019-05-14T01:41:38.906Z,4.17
2019-05-14T01:46:03.109Z,5.40
2019-05-14T01:50:27.216Z,4.13
2019-05-14T01:54:51.501Z,5.87
2019-05-14T01:59:15.701Z,4.67
2019-05-14T02:03:41.088Z,5.20
2019-05-14T02:08:06.046Z,8.05
2019-05-14T02:12:31.532Z,4.23
2019-05-14T02:16:54.182Z,5.87
2019-05-14T02:21:16.802Z,5.43
2019-05-14T02:25:41.310Z,8.63
2019-05-14T02:30:06.446Z,9.40
2019-05-14T02:34:30.570Z,11.43
2019-05-14T02:38:55.648Z,8.37
2019-05-14T02:43:20.264Z,6.17
2019-05-14T02:47:44.387Z,6.90
2019-05-14T02:52:09.895Z,9.10
2019-05-14T02:56:34.411Z,6.40
2019-05-14T03:01:00.375Z,7.33
2019-05-14T03:05:23.993Z,6.57
2019-05-14T03:09:50.173Z,5.80
2019-05-14T03:14:12.810Z,6.53
2019-05-14T03:18:35.876Z,7.97
2019-05-14T03:23:07.986Z,6.83
2019-05-14T03:27:23.829Z,9.40
2019-05-14T03:31:52.314Z,8.10
2019-05-14T03:36:17.644Z,8.23
2019-05-14T03:40:39.990Z,8.97
2019-05-14T03:45:08.584Z,8.33
2019-05-14T03:49:32.738Z,8.63
2019-05-14T03:54:05.625Z,7.00
2019-05-14T03:58:23.225Z,7.67
2019-05-14T04:02:49.013Z,7.70
2019-05-14T04:07:14.282Z,7.87
2019-05-14T04:11:40.337Z,8.23
2019-05-14T04:16:05.298Z,10.37
2019-05-14T04:20:32.163Z,9.23
2019-05-14T04:24:59.713Z,8.17
2019-05-14T04:29:30.322Z,8.03
2019-05-14T04:33:51.392Z,8.30
2019-05-14T04:38:14.741Z,9.13
2019-05-14T04:42:40.142Z,9.23
2019-05-14T04:47:20.209Z,7.90
2019-05-14T04:51:25.430Z,9.70
2019-05-14T04:55:49.454Z,8.60
2019-05-14T05:00:12.916Z,8.27
2019-05-14T05:04:35.691Z,10.43
2019-05-14T05:09:00.082Z,10.17
2019-05-14T05:13:22.925Z,10.07
2019-05-14T05:17:52.506Z,12.80
2019-05-14T05:22:12.789Z,8.17
2019-05-14T05:26:39.035Z,10.70
2019-05-14T05:31:02.760Z,11.43
2019-05-14T05:35:29.034Z,8.90
2019-05-14T05:39:52.213Z,10.53
2019-05-14T05:44:16.020Z,10.50
2019-05-14T05:48:40.139Z,10.63
2019-05-14T05:53:05.506Z,8.94
2019-05-14T05:57:30.635Z,9.27
2019-05-14T06:01:55.043Z,8.57
2019-05-14T06:06:19.432Z,8.03
2019-05-14T06:10:43.440Z,8.73
2019-05-14T06:15:08.704Z,6.50
2019-05-14T06:19:33.140Z,6.60
2019-05-14T06:45:44.171Z,5.77
2019-05-14T06:50:09.739Z,7.57
2019-05-14T06:54:33.834Z,8.07
2019-05-14T07:25:18.420Z,4.90
2019-05-14T07:29:42.570Z,4.60
2019-05-14T07:34:08.725Z,5.23
2019-05-14T07:38:39.241Z,5.33
2019-05-14T07:43:09.253Z,3.97
2019-05-14T07:47:33.481Z,3.43
2019-05-14T07:51:58.714Z,5.37
2019-05-14T07:56:22.863Z,3.80
2019-05-14T08:00:48.984Z,6.47
2019-05-14T08:05:12.977Z,4.35
2019-05-14T08:09:35.915Z,6.23
2019-05-14T09:02:05.445Z,3.30
2019-05-14T09:06:21.244Z,3.63
2019-05-14T09:23:49.424Z,3.87
2019-05-14T09:28:12.849Z,3.40
2019-05-14T09:36:59.364Z,3.43
2019-05-14T09:41:27.513Z,6.95
2019-05-14T09:45:50.108Z,3.27
2019-05-14T09:50:29.017Z,3.25
2019-05-14T09:54:54.596Z,3.83
2019-05-14T09:59:23.934Z,2.80
2019-05-14T10:03:49.623Z,3.30
2019-05-14T10:08:13.549Z,3.45
2019-05-14T10:12:44.703Z,4.93
2019-05-14T10:17:02.875Z,3.23
2019-05-14T10:21:29.209Z,3.07
2019-05-14T10:25:52.805Z,3.03
2019-05-14T10:30:18.237Z,3.87
2019-05-14T10:34:42.181Z,4.43
2019-05-14T10:39:09.405Z,3.47
2019-05-14T10:43:33.410Z,3.33
2019-05-14T10:47:58.603Z,4.30
2019-05-14T10:52:23.091Z,3.57
2019-05-14T10:56:49.503Z,3.20
2019-05-14T11:01:12.471Z,3.83
2019-05-14T11:05:41.264Z,3.60
2019-05-14T11:10:02.715Z,3.30
2019-05-14T11:14:31.325Z,3.73
2019-05-14T11:18:52.416Z,3.40
2019-05-14T11:23:18.457Z,3.25
2019-05-14T11:27:42.232Z,3.10
2019-05-14T11:32:09.350Z,3.52
2019-05-14T11:36:31.909Z,3.97
2019-05-14T11:40:58.576Z,3.20
2019-05-14T11:45:23.635Z,3.20
2019-05-14T11:49:49.198Z,4.77
2019-05-14T11:54:13.526Z,3.85
2019-05-14T11:58:37.610Z,5.10
2019-05-14T12:03:01.702Z,3.50
2019-05-14T12:07:27.948Z,3.37
2019-05-14T12:11:51.298Z,3.17
2019-05-14T12:16:15.457Z,3.50
2019-05-14T12:20:39.884Z,3.87
2019-05-14T12:25:04.193Z,3.80
2019-05-14T12:29:29.194Z,3.60
2019-05-14T12:33:53.446Z,3.27
2019-05-14T12:38:18.723Z,3.35
2019-05-14T12:42:43.665Z,3.30
2019-05-14T12:47:09.483Z,3.67
2019-05-14T12:51:33.514Z,3.50
2019-05-14T12:55:57.821Z,3.03
2019-05-14T13:00:22.294Z,3.83
2019-05-14T13:04:48.639Z,3.57
2019-05-14T13:09:12.866Z,3.65
2019-05-14T13:13:42.413Z,3.97
2019-05-14T13:18:03.375Z,3.52
2019-05-14T13:22:39.269Z,4.47
2019-05-14T13:26:53.086Z,2.70
2019-05-14T13:31:18.328Z,3.60
2019-05-14T13:35:42.642Z,3.17
2019-05-14T13:40:09.279Z,3.23
2019-05-14T13:44:33.769Z,3.00
2019-05-14T13:48:59.152Z,3.77
2019-05-14T13:53:23.569Z,2.90
2019-05-14T13:57:48.665Z,2.37
2019-05-14T14:02:13.518Z,3.52
2019-05-14T14:06:39.357Z,4.27
2019-05-14T14:11:04.362Z,3.03
2019-05-14T14:15:28.905Z,3.17
2019-05-14T14:19:53.319Z,2.70
2019-05-14T14:24:19.691Z,3.02
2019-05-14T14:28:42.994Z,3.30
2019-05-14T14:33:07.140Z,2.57
2019-05-14T14:37:31.297Z,2.67
2019-05-14T14:41:55.369Z,3.70
2019-05-14T14:46:19.999Z,2.40
2019-05-14T14:50:44.190Z,2.57
2019-05-14T14:55:08.829Z,2.80
2019-05-14T14:59:32.625Z,3.00
2019-05-14T15:03:56.430Z,3.40
2019-05-14T15:08:20.854Z,2.72
2019-05-14T15:12:45.941Z,4.13
2019-05-14T15:17:10.025Z,3.73
2019-05-14T15:21:33.937Z,2.87
2019-05-14T15:25:58.918Z,6.73
2019-05-14T15:30:23.314Z,2.27
2019-05-14T15:34:50.270Z,3.17
2019-05-14T15:39:12.696Z,2.67
2019-05-14T15:43:50.201Z,3.10
2019-05-14T15:48:14.478Z,2.90
2019-05-14T15:52:39.794Z,4.63
2019-05-14T15:57:03.910Z,2.50
2019-05-14T16:01:28.610Z,2.83
2019-05-14T16:05:53.446Z,2.60
2019-05-14T16:10:21.751Z,2.42
2019-05-14T16:14:43.982Z,2.63
2019-05-14T16:19:29.020Z,2.70
2019-05-14T16:24:08.275Z,2.93
2019-05-14T16:28:39.124Z,3.53
2019-05-14T16:33:09.132Z,3.77
2019-05-14T16:37:32.230Z,3.10
2019-05-14T16:41:58.301Z,2.40
2019-05-14T16:46:23.391Z,2.58
2019-05-14T16:50:48.962Z,2.83
2019-05-14T16:55:23.299Z,2.70
2019-05-14T16:59:40.659Z,2.90
2019-05-14T17:04:09.024Z,3.10
2019-05-14T17:08:44.504Z,4.33
2019-05-14T17:13:09.161Z,4.40
2019-05-14T17:17:34.651Z,3.37
2019-05-14T17:21:59.511Z,4.03
2019-05-14T17:26:28.783Z,4.27
2019-05-14T17:30:52.944Z,2.50
2019-05-14T17:35:19.549Z,2.83
2019-05-14T17:39:43.804Z,2.50
2019-05-14T17:44:09.043Z,2.20
2019-05-14T17:48:35.280Z,2.80
2019-05-14T17:53:00.255Z,3.53
2019-05-14T17:57:25.947Z,2.70
2019-05-14T18:01:50.088Z,2.40
2019-05-14T18:06:15.402Z,3.42
2019-05-14T18:10:39.616Z,2.97
2019-05-14T18:15:03.612Z,2.57
2019-05-14T18:19:28.997Z,2.57
2019-05-14T18:23:54.005Z,3.07
2019-05-14T18:28:18.072Z,2.20
2019-05-14T18:32:43.398Z,2.50
2019-05-14T18:37:13.379Z,3.00
2019-05-14T18:41:33.560Z,2.70
2019-05-14T18:45:58.732Z,3.07
2019-05-14T18:50:22.879Z,3.27
2019-05-14T18:54:48.340Z,2.67
2019-05-14T18:59:13.385Z,2.40
2019-05-14T19:03:39.703Z,2.37
2019-05-14T19:08:06.116Z,2.65
2019-05-14T19:12:29.994Z,3.07
2019-05-14T19:16:53.821Z,3.20
2019-05-14T19:21:17.763Z,3.70
2019-05-14T19:25:42.263Z,4.80
2019-05-14T19:30:08.450Z,5.87
2019-05-14T19:34:32.760Z,7.53
2019-05-14T19:38:58.412Z,6.17
2019-05-14T19:43:22.722Z,8.67
2019-05-14T19:47:49.117Z,5.33
2019-05-14T19:52:12.955Z,4.70
2019-05-14T19:56:51.852Z,4.47
2019-05-14T20:01:02.586Z,3.93
2019-05-14T20:05:28.706Z,4.73
2019-05-14T20:09:52.490Z,4.10
2019-05-14T20:14:16.373Z,4.23
2019-05-14T20:18:40.364Z,3.57
2019-05-14T20:23:05.670Z,3.70
2019-05-14T20:27:29.892Z,4.27
2019-05-14T20:31:54.056Z,4.20
2019-05-14T20:36:18.779Z,3.80
2019-05-14T20:40:42.785Z,3.90
2019-05-14T20:45:08.254Z,3.23
2019-05-14T20:49:32.060Z,3.63
2019-05-14T20:53:58.073Z,3.60
2019-05-14T20:58:22.612Z,4.22
2019-05-14T21:02:46.558Z,3.70
2019-05-14T21:07:10.871Z,5.10
2019-05-14T21:11:34.925Z,3.70
2019-05-14T21:15:58.845Z,3.90
2019-05-14T21:20:22.990Z,3.70
2019-05-14T21:24:49.737Z,3.63
2019-05-14T21:29:12.940Z,4.40
2019-05-14T21:33:38.899Z,4.40
2019-05-14T21:38:02.864Z,4.13
2019-05-14T21:42:28.547Z,3.80
2019-05-14T21:46:52.789Z,4.83
2019-05-14T21:51:18.028Z,4.87
2019-05-14T21:55:43.385Z,4.97
2019-05-14T22:00:12.899Z,4.00
2019-05-14T22:04:38.675Z,4.57
2019-05-14T22:09:02.675Z,4.33
2019-05-14T22:13:28.482Z,4.63
2019-05-14T22:17:52.912Z,3.87
2019-05-14T22:22:18.664Z,4.73
2019-05-14T22:26:43.877Z,5.10
2019-05-14T22:31:09.104Z,4.23
2019-05-14T22:35:33.473Z,4.13
2019-05-14T22:39:59.957Z,4.17
2019-05-14T22:44:23.864Z,5.05
2019-05-14T22:48:51.339Z,4.20
2019-05-14T22:53:13.809Z,4.87
2019-05-14T22:57:39.253Z,4.97
2019-05-14T23:02:03.873Z,4.90
2019-05-14T23:06:28.209Z,4.30
2019-05-14T23:10:52.541Z,4.60
2019-05-14T23:15:18.182Z,4.47
2019-05-14T23:19:43.538Z,5.67
2019-05-14T23:24:09.217Z,4.87
2019-05-14T23:28:42.594Z,6.17
2019-05-14T23:33:00.523Z,4.90
2019-05-14T23:37:25.552Z,4.10
2019-05-14T23:41:50.407Z,3.80
2019-05-14T23:46:18.211Z,4.33
2019-05-14T23:50:41.519Z,4.23
2019-05-14T23:55:08.331Z,4.40
2019-05-14T23:59:31.780Z,4.10
